createdAt,value
2018-07-27T00:00:44.405Z,69.04
2018-07-27T00:03:12.634Z,69.92
2018-07-27T00:05:40.857Z,69.17
2018-07-27T00:08:09.081Z,68.32
2018-07-27T00:10:37.304Z,68.08
2018-07-27T00:13:05.543Z,67.94
2018-07-27T00:15:33.758Z,68.65
2018-07-27T00:18:01.963Z,68.97
2018-07-27T00:20:30.186Z,69.01
2018-07-27T00:22:58.454Z,69.98
2018-07-27T00:25:26.738Z,70.58
2018-07-27T00:27:55.009Z,69.57
2018-07-27T00:30:23.257Z,71.76
2018-07-27T00:32:51.453Z,70.58
2018-07-27T00:35:19.661Z,71.13
2018-07-27T00:37:47.864Z,71.64
2018-07-27T00:40:16.061Z,72.89
2018-07-27T00:42:44.262Z,72.45
2018-07-27T00:45:12.462Z,71.58
2018-07-27T00:47:40.722Z,70.22
2018-07-27T00:50:08.949Z,70.17
2018-07-27T00:52:37.218Z,70.45
2018-07-27T00:55:05.426Z,71.59
2018-07-27T00:57:33.618Z,72.45
2018-07-27T01:00:01.834Z,73.71
2018-07-27T01:02:30.022Z,75.95
2018-07-27T01:04:58.218Z,75.04
2018-07-27T01:07:26.434Z,73.35
2018-07-27T01:09:54.946Z,73.44
2018-07-27T01:12:23.146Z,74.92
2018-07-27T01:14:51.358Z,75.19
2018-07-27T01:17:19.557Z,75.54
2018-07-27T01:19:47.776Z,76.80
2018-07-27T01:22:15.969Z,75.33
2018-07-27T01:24:44.194Z,75.76
2018-07-27T01:27:12.374Z,75.05
2018-07-27T01:29:40.573Z,75.04
2018-07-27T01:32:08.786Z,75.26
2018-07-27T01:34:36.984Z,77.33
2018-07-27T01:37:05.290Z,77.09
2018-07-27T01:39:33.503Z,77.09
2018-07-27T01:42:01.734Z,77.46
2018-07-27T01:44:29.950Z,77.25
2018-07-27T01:46:58.174Z,76.88
2018-07-27T01:49:26.384Z,76.25
2018-07-27T01:51:54.562Z,75.95
2018-07-27T01:54:22.775Z,78.47
2018-07-27T01:56:50.969Z,78.37
2018-07-27T01:59:19.178Z,78.28
2018-07-27T02:01:47.373Z,78.05
2018-07-27T02:04:15.594Z,75.73
2018-07-27T02:06:43.785Z,76.02
2018-07-27T02:09:11.978Z,74.98
2018-07-27T02:11:40.178Z,74.44
2018-07-27T02:14:08.369Z,74.99
2018-07-27T02:16:36.565Z,75.13
2018-07-27T02:19:04.794Z,75.51
2018-07-27T02:21:33.022Z,75.59
2018-07-27T02:24:01.239Z,76.00
2018-07-27T02:26:29.437Z,75.36
2018-07-27T02:28:57.638Z,76.81
2018-07-27T02:31:25.854Z,76.21
2018-07-27T02:33:54.095Z,77.68
2018-07-27T02:36:22.260Z,78.64
2018-07-27T02:38:50.458Z,79.42
2018-07-27T02:41:18.655Z,77.82
2018-07-27T02:43:46.868Z,77.57
2018-07-27T02:46:15.949Z,78.65
2018-07-27T02:48:44.194Z,77.71
2018-07-27T02:51:12.389Z,76.85
2018-07-27T02:53:41.386Z,76.58
2018-07-27T02:56:09.608Z,76.61
2018-07-27T02:58:37.816Z,77.98
2018-07-27T03:01:06.330Z,76.14
2018-07-27T03:03:34.538Z,74.83
2018-07-27T03:06:02.751Z,74.23
2018-07-27T03:08:30.965Z,73.53
2018-07-27T03:10:59.200Z,74.36
2018-07-27T03:13:27.415Z,73.84
2018-07-27T03:15:55.621Z,75.10
2018-07-27T03:18:23.821Z,74.89
2018-07-27T03:20:52.063Z,74.88
2018-07-27T03:23:20.261Z,75.47
2018-07-27T03:25:48.470Z,75.16
2018-07-27T03:28:16.689Z,75.30
2018-07-27T03:30:44.895Z,76.22
2018-07-27T03:33:13.108Z,77.42
2018-07-27T03:35:41.310Z,78.78
2018-07-27T03:38:09.544Z,78.69
2018-07-27T03:40:37.718Z,79.89
2018-07-27T03:43:05.957Z,82.44
2018-07-27T03:45:34.234Z,81.51
2018-07-27T03:48:06.591Z,81.36
2018-07-27T03:50:34.801Z,81.06
2018-07-27T03:53:03.126Z,82.33
2018-07-27T03:55:31.379Z,83.78
2018-07-27T03:57:59.623Z,83.35
2018-07-27T04:00:27.830Z,83.49
2018-07-27T04:02:56.102Z,83.43
2018-07-27T04:05:24.297Z,83.25
2018-07-27T04:07:52.482Z,84.33
2018-07-27T04:10:20.882Z,84.24
2018-07-27T04:12:49.074Z,84.75
2018-07-27T04:15:17.294Z,84.07
2018-07-27T04:17:50.664Z,84.41
2018-07-27T04:20:18.866Z,84.25
2018-07-27T04:22:47.178Z,83.74
2018-07-27T04:25:15.378Z,84.73
2018-07-27T04:27:43.600Z,83.09
2018-07-27T04:30:11.819Z,81.47
2018-07-27T04:32:40.038Z,77.43
2018-07-27T04:35:08.241Z,75.91
2018-07-27T04:37:36.447Z,75.65
2018-07-27T04:40:04.678Z,75.79
2018-07-27T04:42:32.874Z,76.41
2018-07-27T04:45:01.087Z,76.40
2018-07-27T04:47:29.285Z,76.53
2018-07-27T04:49:57.522Z,76.15
2018-07-27T04:52:25.845Z,76.30
2018-07-27T04:54:54.048Z,75.87
2018-07-27T04:57:22.306Z,75.87
2018-07-27T04:59:50.502Z,76.42
2018-07-27T05:02:18.697Z,75.39
2018-07-27T05:04:46.978Z,76.04
2018-07-27T05:07:15.120Z,75.73
2018-07-27T05:09:43.330Z,75.60
2018-07-27T05:12:11.533Z,75.37
2018-07-27T05:14:39.737Z,75.49
2018-07-27T05:17:07.939Z,74.67
2018-07-27T05:19:36.138Z,75.01
2018-07-27T05:22:04.359Z,74.60
2018-07-27T05:24:32.608Z,74.69
2018-07-27T05:27:00.770Z,74.78
2018-07-27T05:29:28.978Z,74.03
2018-07-27T05:31:57.198Z,74.26
2018-07-27T05:34:25.513Z,74.46
2018-07-27T05:39:20.894Z,73.23
2018-07-27T05:41:49.099Z,73.84
2018-07-27T05:44:17.319Z,72.61
2018-07-27T05:46:45.625Z,72.11
2018-07-27T05:49:13.790Z,71.74
2018-07-27T05:51:42.290Z,71.59
2018-07-27T05:54:10.534Z,71.18
2018-07-27T05:56:38.734Z,70.47
2018-07-27T05:59:06.974Z,69.90
2018-07-27T06:01:35.194Z,70.40
2018-07-27T06:04:03.431Z,71.32
2018-07-27T06:06:31.659Z,70.58
2018-07-27T06:08:59.898Z,69.19
2018-07-27T06:11:28.150Z,67.65
2018-07-27T06:13:56.366Z,67.76
2018-07-27T06:16:24.578Z,68.24
2018-07-27T06:18:52.801Z,67.10
2018-07-27T06:21:20.998Z,67.00
2018-07-27T06:23:49.265Z,67.61
2018-07-27T06:26:17.494Z,67.95
2018-07-27T06:28:45.702Z,66.95
2018-07-27T06:31:13.918Z,66.14
2018-07-27T06:33:42.118Z,66.40
2018-07-27T06:36:10.350Z,66.02
2018-07-27T06:38:38.553Z,66.89
2018-07-27T06:41:06.881Z,66.80
2018-07-27T06:43:35.102Z,65.87
2018-07-27T06:46:03.355Z,66.08
2018-07-27T06:48:31.558Z,66.69
2018-07-27T06:50:59.774Z,66.90
2018-07-27T06:53:27.981Z,66.39
2018-07-27T06:55:56.191Z,66.86
2018-07-27T06:58:24.455Z,65.19
2018-07-27T07:00:52.710Z,64.74
2018-07-27T07:03:20.967Z,64.69
2018-07-27T07:05:49.541Z,64.25
2018-07-27T07:08:17.741Z,63.85
2018-07-27T07:10:45.962Z,63.19
2018-07-27T07:13:14.178Z,63.26
2018-07-27T07:15:42.390Z,62.80
2018-07-27T07:18:10.589Z,63.87
2018-07-27T07:20:38.825Z,63.41
2018-07-27T07:23:07.030Z,62.10
2018-07-27T07:25:35.379Z,62.56
2018-07-27T07:28:03.470Z,62.65
2018-07-27T07:30:31.684Z,61.89
2018-07-27T07:32:59.904Z,60.75
2018-07-27T07:35:28.116Z,61.60
2018-07-27T07:37:56.598Z,61.37
2018-07-27T07:40:24.816Z,60.57
2018-07-27T07:42:53.042Z,59.83
2018-07-27T07:45:21.249Z,59.11
2018-07-27T07:47:49.443Z,61.05
2018-07-27T07:50:17.653Z,59.89
2018-07-27T07:52:45.862Z,58.51
2018-07-27T07:55:14.061Z,58.65
2018-07-27T07:57:42.275Z,58.96
2018-07-27T08:00:10.514Z,57.65
2018-07-27T08:02:38.717Z,55.97
2018-07-27T08:05:07.086Z,55.20
2018-07-27T08:07:37.614Z,52.82
2018-07-27T08:10:06.125Z,53.29
2018-07-27T08:12:34.490Z,52.65
2018-07-27T08:15:02.750Z,51.60
2018-07-27T08:17:31.066Z,52.44
2018-07-27T08:19:59.289Z,52.13
2018-07-27T08:22:27.517Z,51.65
2018-07-27T08:24:55.733Z,51.50
2018-07-27T08:27:23.962Z,50.70
2018-07-27T08:29:52.162Z,50.39
2018-07-27T08:32:20.482Z,51.01
2018-07-27T08:34:48.762Z,49.28
2018-07-27T08:37:17.073Z,49.79
2018-07-27T08:39:45.379Z,48.61
2018-07-27T08:42:13.577Z,49.74
2018-07-27T08:44:42.694Z,50.10
2018-07-27T08:47:10.939Z,48.67
2018-07-27T08:49:39.177Z,48.33
2018-07-27T08:52:07.385Z,46.37
2018-07-27T08:54:35.583Z,47.14
2018-07-27T08:57:03.850Z,47.99
2018-07-27T08:59:32.111Z,47.50
2018-07-27T09:02:00.362Z,47.85
2018-07-27T09:04:28.613Z,47.75
2018-07-27T09:06:56.814Z,44.94
2018-07-27T09:09:25.058Z,44.20
2018-07-27T09:11:53.292Z,45.27
2018-07-27T09:14:21.834Z,45.74
2018-07-27T09:16:50.130Z,43.93
2018-07-27T09:19:18.898Z,44.17
2018-07-27T09:21:47.114Z,46.41
2018-07-27T09:24:15.439Z,45.97
2018-07-27T09:26:43.540Z,45.86
2018-07-27T09:29:11.745Z,45.81
2018-07-27T09:31:39.982Z,45.27
2018-07-27T09:34:08.274Z,45.62
2018-07-27T09:36:36.464Z,47.04
2018-07-27T09:39:07.866Z,46.66
2018-07-27T09:41:36.146Z,46.54
2018-07-27T09:44:04.399Z,45.30
2018-07-27T09:46:32.642Z,44.86
2018-07-27T09:49:00.801Z,46.07
2018-07-27T09:51:29.052Z,45.64
2018-07-27T09:53:57.320Z,44.59
2018-07-27T09:56:25.541Z,46.89
2018-07-27T09:58:53.782Z,44.36
2018-07-27T10:01:22.729Z,46.14
2018-07-27T10:03:51.474Z,45.99
2018-07-27T10:06:19.679Z,45.39
2018-07-27T10:08:47.938Z,45.42
2018-07-27T10:11:16.138Z,44.24
2018-07-27T10:13:44.386Z,42.84
2018-07-27T10:16:12.609Z,43.07
2018-07-27T10:18:40.813Z,43.31
2018-07-27T10:21:09.314Z,41.29
2018-07-27T10:23:37.611Z,40.67
2018-07-27T10:26:05.992Z,42.02
2018-07-27T10:28:34.183Z,40.96
2018-07-27T10:31:02.452Z,42.49
2018-07-27T10:33:30.702Z,44.48
2018-07-27T10:35:58.905Z,42.04
2018-07-27T10:38:27.110Z,43.04
2018-07-27T10:40:55.301Z,41.20
2018-07-27T10:43:23.494Z,41.01
2018-07-27T10:45:51.706Z,40.15
2018-07-27T10:48:19.975Z,40.14
2018-07-27T10:50:48.209Z,39.07
2018-07-27T10:53:16.470Z,40.54
2018-07-27T10:55:44.667Z,40.98
2018-07-27T10:58:12.891Z,40.34
2018-07-27T11:00:41.093Z,39.27
2018-07-27T11:03:09.319Z,39.60
2018-07-27T11:05:37.514Z,39.95
2018-07-27T11:08:05.702Z,40.18
2018-07-27T11:10:34.713Z,38.53
2018-07-27T11:13:02.901Z,38.73
2018-07-27T11:15:31.123Z,38.89
2018-07-27T11:17:59.330Z,38.17
2018-07-27T11:20:27.533Z,39.17
2018-07-27T11:22:55.761Z,38.50
2018-07-27T11:25:23.989Z,38.56
2018-07-27T11:27:52.246Z,39.83
2018-07-27T11:30:20.482Z,39.79
2018-07-27T11:32:48.689Z,39.89
2018-07-27T11:35:16.956Z,40.03
2018-07-27T11:37:45.175Z,39.49
2018-07-27T11:40:13.499Z,38.50
2018-07-27T11:42:41.719Z,38.83
2018-07-27T11:45:09.912Z,40.31
2018-07-27T11:47:38.131Z,40.25
2018-07-27T11:50:06.662Z,39.64
2018-07-27T11:52:34.910Z,39.37
2018-07-27T11:55:03.138Z,39.92
2018-07-27T11:57:31.334Z,39.53
2018-07-27T11:59:59.549Z,39.87
2018-07-27T12:02:27.802Z,38.93
2018-07-27T12:04:56.022Z,39.12
2018-07-27T12:07:24.223Z,37.38
2018-07-27T12:09:52.463Z,37.87
2018-07-27T12:12:20.674Z,37.76
2018-07-27T12:14:49.044Z,37.37
2018-07-27T12:17:17.197Z,38.17
2018-07-27T12:19:45.398Z,37.50
2018-07-27T12:22:13.603Z,38.18
2018-07-27T12:24:41.806Z,36.48
2018-07-27T12:27:10.188Z,38.25
2018-07-27T12:29:38.355Z,38.43
2018-07-27T12:32:06.579Z,38.71
2018-07-27T12:34:34.801Z,38.89
2018-07-27T12:37:03.002Z,38.33
2018-07-27T12:39:31.198Z,39.85
2018-07-27T12:41:59.406Z,38.51
2018-07-27T12:44:27.613Z,39.58
2018-07-27T12:46:55.814Z,40.04
2018-07-27T12:49:24.025Z,40.90
2018-07-27T12:52:23.182Z,40.84
2018-07-27T12:54:51.395Z,40.68
2018-07-27T12:57:20.634Z,39.31
2018-07-27T12:59:48.839Z,40.99
2018-07-27T13:02:17.045Z,40.82
2018-07-27T13:04:45.266Z,41.13
2018-07-27T13:07:13.477Z,41.67
2018-07-27T13:09:41.711Z,42.34
2018-07-27T13:12:09.946Z,41.63
2018-07-27T13:14:38.135Z,42.10
2018-07-27T13:17:06.338Z,40.89
2018-07-27T13:19:34.542Z,39.88
2018-07-27T13:22:02.737Z,39.60
2018-07-27T13:24:56.842Z,41.01
2018-07-27T13:26:59.150Z,41.48
2018-07-27T13:29:27.417Z,39.76
2018-07-27T13:31:56.767Z,41.17
2018-07-27T13:34:35.230Z,41.21
2018-07-27T13:37:03.466Z,41.46
2018-07-27T13:39:32.217Z,39.96
2018-07-27T13:42:01.491Z,40.50
2018-07-27T13:44:30.397Z,39.34
2018-07-27T13:46:58.595Z,39.51
2018-07-27T13:49:27.490Z,39.21
2018-07-27T13:51:55.790Z,37.76
2018-07-27T13:54:23.995Z,37.18
2018-07-27T13:56:52.205Z,37.13
2018-07-27T13:59:20.394Z,37.68
2018-07-27T14:01:49.550Z,38.33
2018-07-27T14:04:17.958Z,36.90
2018-07-27T14:06:47.953Z,38.62
2018-07-27T14:09:16.174Z,37.21
2018-07-27T14:11:44.446Z,37.07
2018-07-27T14:14:12.957Z,36.87
2018-07-27T14:16:41.721Z,37.79
2018-07-27T14:19:10.122Z,37.80
2018-07-27T14:21:38.394Z,37.69
2018-07-27T14:24:06.534Z,36.50
2018-07-27T14:26:34.746Z,36.17
2018-07-27T14:29:02.938Z,37.55
2018-07-27T14:31:31.135Z,35.34
2018-07-27T14:33:59.338Z,35.17
2018-07-27T14:36:27.590Z,36.07
2018-07-27T14:38:55.819Z,36.06
2018-07-27T14:41:24.150Z,35.70
2018-07-27T14:43:52.699Z,35.21
2018-07-27T14:46:20.956Z,35.29
2018-07-27T14:48:49.162Z,36.64
2018-07-27T14:51:17.580Z,37.25
2018-07-27T14:53:46.234Z,37.62
2018-07-27T14:56:14.462Z,35.53
2018-07-27T14:58:43.710Z,37.32
2018-07-27T15:01:11.858Z,37.41
2018-07-27T15:03:40.058Z,38.55
2018-07-27T15:06:08.258Z,40.57
2018-07-27T15:08:36.466Z,39.55
2018-07-27T15:11:04.681Z,39.60
2018-07-27T15:13:32.862Z,40.67
2018-07-27T15:16:01.062Z,41.66
2018-07-27T15:18:29.257Z,36.86
2018-07-27T15:20:57.486Z,39.23
2018-07-27T15:23:25.690Z,37.78
2018-07-27T15:25:53.886Z,36.25
2018-07-27T15:28:22.090Z,35.13
2018-07-27T15:30:50.319Z,35.85
2018-07-27T15:33:18.562Z,35.60
2018-07-27T15:35:46.774Z,34.07
2018-07-27T15:38:14.970Z,34.24
2018-07-27T15:40:43.229Z,35.95
2018-07-27T15:43:11.424Z,34.81
2018-07-27T15:45:39.641Z,35.56
2018-07-27T15:48:07.907Z,35.61
2018-07-27T15:50:36.145Z,34.35
2018-07-27T15:53:04.381Z,34.49
2018-07-27T15:55:32.756Z,34.85
2018-07-27T15:58:00.942Z,34.83
2018-07-27T16:00:29.161Z,35.58
2018-07-27T16:02:57.387Z,34.62
2018-07-27T16:05:25.600Z,32.70
2018-07-27T16:07:53.806Z,31.57
2018-07-27T16:10:22.006Z,30.19
2018-07-27T16:12:50.222Z,30.09
2018-07-27T16:15:18.446Z,29.85
2018-07-27T16:17:46.646Z,29.66
2018-07-27T16:20:14.847Z,31.57
2018-07-27T16:22:43.050Z,29.73
2018-07-27T16:25:11.265Z,31.85
2018-07-27T16:27:39.502Z,31.46
2018-07-27T16:30:07.740Z,30.41
2018-07-27T16:32:35.934Z,31.46
2018-07-27T16:35:04.133Z,32.97
2018-07-27T16:37:32.336Z,32.99
2018-07-27T16:40:00.541Z,33.07
2018-07-27T16:42:28.812Z,33.61
2018-07-27T16:44:57.005Z,33.75
2018-07-27T16:47:25.237Z,34.49
2018-07-27T16:49:53.429Z,32.89
2018-07-27T16:52:21.626Z,34.04
2018-07-27T16:54:49.861Z,32.71
2018-07-27T16:57:18.053Z,32.73
2018-07-27T16:59:46.311Z,33.10
2018-07-27T17:02:14.462Z,33.07
2018-07-27T17:04:42.653Z,32.38
2018-07-27T17:07:10.854Z,32.33
2018-07-27T17:09:39.041Z,34.11
2018-07-27T17:12:07.332Z,34.13
2018-07-27T17:14:35.526Z,35.78
2018-07-27T17:17:03.774Z,34.75
2018-07-27T17:19:31.978Z,37.61
2018-07-27T17:22:00.235Z,37.26
2018-07-27T17:24:28.606Z,37.80
2018-07-27T17:26:56.802Z,39.11
2018-07-27T17:29:25.016Z,39.83
2018-07-27T17:31:53.217Z,38.74
2018-07-27T17:34:21.444Z,40.38
2018-07-27T17:36:49.640Z,40.95
2018-07-27T17:39:17.843Z,40.18
2018-07-27T17:41:46.033Z,39.57
2018-07-27T17:44:14.258Z,39.46
2018-07-27T17:46:42.446Z,38.99
2018-07-27T17:49:10.662Z,39.16
2018-07-27T17:51:39.170Z,37.35
2018-07-27T17:54:08.286Z,38.76
2018-07-27T17:56:36.478Z,38.40
2018-07-27T17:59:05.026Z,39.31
2018-07-27T18:01:33.249Z,39.44
2018-07-27T18:04:01.422Z,39.25
2018-07-27T18:06:29.626Z,40.19
2018-07-27T18:08:57.833Z,39.66
2018-07-27T18:11:26.035Z,39.39
2018-07-27T18:13:54.235Z,39.85
2018-07-27T18:16:22.422Z,40.35
2018-07-27T18:18:50.606Z,40.95
2018-07-27T18:21:18.802Z,41.66
2018-07-27T18:23:47.000Z,41.01
2018-07-27T18:26:15.205Z,40.63
2018-07-27T18:28:43.397Z,41.61
2018-07-27T18:31:11.594Z,41.21
2018-07-27T18:33:39.809Z,41.47
2018-07-27T18:36:08.265Z,40.55
2018-07-27T18:38:36.482Z,42.77
2018-07-27T18:41:04.686Z,44.63
2018-07-27T18:43:32.869Z,45.04
2018-07-27T18:46:01.080Z,46.26
2018-07-27T18:48:29.286Z,47.14
2018-07-27T18:50:57.531Z,46.00
2018-07-27T18:53:25.737Z,47.19
2018-07-27T18:55:53.933Z,46.73
2018-07-27T18:58:22.138Z,48.03
2018-07-27T19:00:50.338Z,47.66
2018-07-27T19:03:18.549Z,48.58
2018-07-27T19:05:46.729Z,48.67
2018-07-27T19:08:15.034Z,47.89
2018-07-27T19:10:43.234Z,48.87
2018-07-27T19:13:11.430Z,50.06
2018-07-27T19:15:39.626Z,50.71
2018-07-27T19:18:07.818Z,50.47
2018-07-27T19:20:36.037Z,50.61
2018-07-27T19:23:04.238Z,49.68
2018-07-27T19:25:32.418Z,49.45
2018-07-27T19:28:00.625Z,48.68
2018-07-27T19:30:28.850Z,48.62
2018-07-27T19:32:57.050Z,48.67
2018-07-27T19:35:25.254Z,49.86
2018-07-27T19:37:53.442Z,51.28
2018-07-27T19:40:21.692Z,52.47
2018-07-27T19:42:49.870Z,52.23
2018-07-27T19:45:18.103Z,52.26
2018-07-27T19:47:46.346Z,52.50
2018-07-27T19:50:14.531Z,52.16
2018-07-27T19:52:42.738Z,52.21
2018-07-27T19:55:11.009Z,51.75
2018-07-27T19:57:39.214Z,52.10
2018-07-27T20:00:08.054Z,52.89
2018-07-27T20:02:36.242Z,53.24
2018-07-27T20:05:04.519Z,53.30
2018-07-27T20:07:32.754Z,53.20
2018-07-27T20:10:01.014Z,54.85
2018-07-27T20:12:29.239Z,54.08
2018-07-27T20:14:57.438Z,54.86
2018-07-27T20:17:25.687Z,54.60
2018-07-27T20:19:53.886Z,54.56
2018-07-27T20:22:22.099Z,52.86
2018-07-27T20:24:50.314Z,53.97
2018-07-27T20:27:18.501Z,53.98
2018-07-27T20:29:46.738Z,54.26
2018-07-27T20:32:15.042Z,53.63
2018-07-27T20:34:43.254Z,53.72
2018-07-27T20:37:11.478Z,53.55
2018-07-27T20:39:39.678Z,54.13
2018-07-27T20:42:07.967Z,55.29
2018-07-27T20:44:36.158Z,55.44
2018-07-27T20:47:04.390Z,54.58
2018-07-27T20:49:36.255Z,55.91
2018-07-27T20:52:04.478Z,54.67
2018-07-27T20:54:32.720Z,55.83
2018-07-27T20:57:00.950Z,55.49
2018-07-27T20:59:29.139Z,54.87
2018-07-27T21:01:57.382Z,55.86
2018-07-27T21:04:25.641Z,57.01
2018-07-27T21:06:53.870Z,57.64
2018-07-27T21:09:22.083Z,56.14
2018-07-27T21:11:50.289Z,56.52
2018-07-27T21:14:18.522Z,56.35
2018-07-27T21:16:46.718Z,56.98
2018-07-27T21:19:14.946Z,57.13
2018-07-27T21:21:43.224Z,58.47
2018-07-27T21:24:11.358Z,57.15
2018-07-27T21:26:39.602Z,58.92
2018-07-27T21:29:07.802Z,57.74
2018-07-27T21:31:36.026Z,57.59
2018-07-27T21:34:04.225Z,59.01
2018-07-27T21:36:32.567Z,58.58
2018-07-27T21:39:00.733Z,58.12
2018-07-27T21:41:28.937Z,58.42
2018-07-27T21:43:57.886Z,58.22
2018-07-27T21:46:26.079Z,58.44
2018-07-27T21:48:54.530Z,58.37
2018-07-27T21:51:22.742Z,58.31
2018-07-27T21:53:51.038Z,59.39
2018-07-27T21:56:19.258Z,59.95
2018-07-27T21:58:47.490Z,59.89
2018-07-27T22:01:15.934Z,59.82
2018-07-27T22:03:44.171Z,59.42
2018-07-27T22:06:12.401Z,59.67
2018-07-27T22:08:40.649Z,59.99
2018-07-27T22:11:08.915Z,60.64
2018-07-27T22:13:37.142Z,60.34
2018-07-27T22:16:05.350Z,61.39
2018-07-27T22:18:33.551Z,60.92
2018-07-27T22:21:01.798Z,60.93
2018-07-27T22:23:30.007Z,61.13
2018-07-27T22:25:58.210Z,60.89
2018-07-27T22:28:26.413Z,62.62
2018-07-27T22:30:54.670Z,62.26
2018-07-27T22:33:22.886Z,61.92
2018-07-27T22:35:51.082Z,62.46
2018-07-27T22:38:19.301Z,62.72
2018-07-27T22:40:47.540Z,62.41
2018-07-27T22:43:15.739Z,62.25
2018-07-27T22:45:43.954Z,62.79
2018-07-27T22:48:12.193Z,62.70
2018-07-27T22:50:40.430Z,63.15
2018-07-27T22:53:08.646Z,61.94
2018-07-27T22:55:36.846Z,63.47
2018-07-27T22:58:05.411Z,64.24
2018-07-27T23:00:33.622Z,63.24
2018-07-27T23:03:01.856Z,63.51
2018-07-27T23:05:30.086Z,64.84
2018-07-27T23:07:58.351Z,64.45
2018-07-27T23:10:26.586Z,63.73
2018-07-27T23:12:54.798Z,65.65
2018-07-27T23:15:23.037Z,64.70
2018-07-27T23:17:51.238Z,65.90
2018-07-27T23:20:19.445Z,67.64
2018-07-27T23:22:47.642Z,67.24
2018-07-27T23:25:15.857Z,66.62
2018-07-27T23:27:44.073Z,68.39
2018-07-27T23:30:13.270Z,67.26
2018-07-27T23:32:41.822Z,67.21
2018-07-27T23:35:10.026Z,67.82
2018-07-27T23:37:38.367Z,66.57
2018-07-27T23:40:07.197Z,67.52
2018-07-27T23:42:35.414Z,67.35
2018-07-27T23:45:03.666Z,68.60
2018-07-27T23:47:31.877Z,68.44
2018-07-27T23:50:00.075Z,67.62
2018-07-27T23:52:28.306Z,67.55
2018-07-27T23:54:56.522Z,68.87
2018-07-27T23:57:24.754Z,69.51
2018-07-27T23:59:52.969Z,69.38
